Time;durP1;ratioP1;P1;durP2;ratioP2;P2;SDS_P1;SDS_P2;PMS_P1;PMS_P2;Temp;Humidity;BMP_temperature;BMP_pressure;BME280_temperature;BME280_humidity;BME280_pressure;Samples;Min_cycle;Max_cycle;Signal;HPM_P1;HPM_P2
2023/07/16 00:00:09;;;;;;;15.95;7.97;;;;;;;;;;4975284;28;20034;-60
2023/07/16 00:02:37;;;;;;;17.30;8.18;;;;;;;;;;4975135;28;20043;-62
2023/07/16 00:05:03;;;;;;;13.70;7.78;;;;;;;;;;4972350;28;20062;-61
2023/07/16 00:07:30;;;;;;;16.08;8.02;;;;;;;;;;4972822;28;20054;-61
2023/07/16 00:09:56;;;;;;;15.77;7.85;;;;;;;;;;4971727;28;20042;-62
2023/07/16 00:12:22;;;;;;;12.00;7.13;;;;;;;;;;4970516;28;20054;-62
2023/07/16 00:14:48;;;;;;;12.05;7.05;;;;;;;;;;4975396;28;20042;-60
2023/07/16 00:17:14;;;;;;;12.05;7.07;;;;;;;;;;4968029;28;20023;-59
2023/07/16 00:19:40;;;;;;;10.30;6.40;;;;;;;;;;4978375;28;20050;-58
2023/07/16 00:22:07;;;;;;;10.52;5.45;;;;;;;;;;4971125;28;20038;-59
2023/07/16 00:24:33;;;;;;;11.80;4.90;;;;;;;;;;4972321;28;20037;-57
2023/07/16 00:26:59;;;;;;;7.45;4.13;;;;;;;;;;4976421;28;20042;-60
2023/07/16 00:29:25;;;;;;;5.78;2.60;;;;;;;;;;4974685;28;20049;-61
2023/07/16 00:31:52;;;;;;;5.03;2.80;;;;;;;;;;4976792;28;20038;-61
2023/07/16 00:34:18;;;;;;;3.90;2.40;;;;;;;;;;4979842;28;20043;-62
2023/07/16 00:36:44;;;;;;;5.15;2.22;;;;;;;;;;4974372;28;20047;-62
2023/07/16 00:39:11;;;;;;;4.70;2.30;;;;;;;;;;4975778;28;20042;-62
2023/07/16 00:41:37;;;;;;;5.60;2.40;;;;;;;;;;4972207;28;20417;-60
2023/07/16 00:44:03;;;;;;;10.35;2.42;;;;;;;;;;4977370;28;20061;-60
2023/07/16 00:46:29;;;;;;;3.33;2.60;;;;;;;;;;4978337;28;20071;-61
2023/07/16 00:48:56;;;;;;;5.18;2.60;;;;;;;;;;4975706;28;20043;-62
2023/07/16 00:51:25;;;;;;;5.53;2.60;;;;;;;;;;4978568;28;20141;-62
2023/07/16 00:53:51;;;;;;;5.28;2.60;;;;;;;;;;4977388;28;20053;-62
2023/07/16 00:56:17;;;;;;;5.47;2.55;;;;;;;;;;4978780;28;20398;-62
2023/07/16 00:58:44;;;;;;;8.02;2.92;;;;;;;;;;4975202;28;20422;-62
2023/07/16 01:01:10;;;;;;;6.47;2.70;;;;;;;;;;4976939;28;20033;-62
2023/07/16 01:03:37;;;;;;;4.63;2.35;;;;;;;;;;4976282;28;20064;-62
2023/07/16 01:06:03;;;;;;;8.38;2.70;;;;;;;;;;4976304;28;20046;-63
2023/07/16 01:08:31;;;;;;;6.25;2.40;;;;;;;;;;4980036;28;20398;-63
2023/07/16 01:10:59;;;;;;;5.40;2.80;;;;;;;;;;4974977;28;20046;-64
2023/07/16 01:13:26;;;;;;;5.88;2.40;;;;;;;;;;4973330;28;20058;-63
2023/07/16 01:15:52;;;;;;;5.32;2.75;;;;;;;;;;4974994;28;20418;-62
2023/07/16 01:18:18;;;;;;;6.20;3.15;;;;;;;;;;4978578;28;20038;-62
2023/07/16 01:20:44;;;;;;;5.85;2.70;;;;;;;;;;4972111;28;20402;-62
2023/07/16 01:23:39;;;;;;;5.70;2.88;;;;;;;;;;4977417;28;20058;-61
2023/07/16 01:26:23;;;;;;;4.10;2.67;;;;;;;;;;4993032;28;20053;-62
2023/07/16 01:28:54;;;;;;;6.65;2.80;;;;;;;;;;4975559;28;20042;-62
2023/07/16 01:31:22;;;;;;;5.18;2.75;;;;;;;;;;4979015;28;20027;-62
2023/07/16 01:33:50;;;;;;;6.03;2.80;;;;;;;;;;4982082;28;20038;-61
2023/07/16 01:36:18;;;;;;;6.43;2.70;;;;;;;;;;4972432;28;20054;-62
2023/07/16 01:38:45;;;;;;;4.47;2.67;;;;;;;;;;4973812;28;20037;-62
2023/07/16 01:41:11;;;;;;;3.83;2.53;;;;;;;;;;4972490;28;20038;-61
2023/07/16 01:43:37;;;;;;;3.08;1.85;;;;;;;;;;4973465;28;20038;-61
2023/07/16 01:46:03;;;;;;;4.40;2.22;;;;;;;;;;4973242;28;20058;-61
2023/07/16 01:48:37;;;;;;;5.20;2.00;;;;;;;;;;4974439;28;20055;-61
2023/07/16 01:51:04;;;;;;;3.97;2.10;;;;;;;;;;4974216;28;20047;-62
2023/07/16 01:53:31;;;;;;;2.88;1.65;;;;;;;;;;4976939;28;20045;-63
2023/07/16 01:55:58;;;;;;;3.95;1.80;;;;;;;;;;4977674;28;20059;-62
2023/07/16 01:58:24;;;;;;;3.20;1.90;;;;;;;;;;4975068;28;20035;-63
2023/07/16 02:00:50;;;;;;;4.93;2.10;;;;;;;;;;4971454;28;20042;-62
2023/07/16 02:03:16;;;;;;;3.72;2.00;;;;;;;;;;4978729;28;20050;-62
2023/07/16 02:05:42;;;;;;;4.25;2.00;;;;;;;;;;4974112;28;20030;-62
2023/07/16 02:08:10;;;;;;;3.75;1.98;;;;;;;;;;4973759;28;20425;-62
2023/07/16 02:10:36;;;;;;;2.28;1.35;;;;;;;;;;4975669;28;20383;-62
2023/07/16 02:13:02;;;;;;;4.57;2.00;;;;;;;;;;4979006;28;20035;-62
2023/07/16 02:15:28;;;;;;;3.83;2.10;;;;;;;;;;4970677;28;20054;-62
2023/07/16 02:17:54;;;;;;;6.18;2.10;;;;;;;;;;4972544;28;20065;-62
2023/07/16 02:20:20;;;;;;;4.82;1.85;;;;;;;;;;4971112;28;20070;-62
2023/07/16 02:22:46;;;;;;;3.00;1.83;;;;;;;;;;4972075;28;20034;-61
2023/07/16 02:25:13;;;;;;;3.90;1.73;;;;;;;;;;4972608;28;20038;-62
2023/07/16 02:27:39;;;;;;;3.42;1.80;;;;;;;;;;4971181;28;20502;-62
2023/07/16 02:30:06;;;;;;;3.95;1.95;;;;;;;;;;4974608;28;20045;-62
2023/07/16 02:32:33;;;;;;;2.38;1.73;;;;;;;;;;4970951;28;20418;-62
2023/07/16 02:35:01;;;;;;;4.70;1.75;;;;;;;;;;4974738;28;20055;-62
2023/07/16 02:37:28;;;;;;;4.68;2.03;;;;;;;;;;4970800;28;20081;-61
2023/07/16 02:39:57;;;;;;;3.95;1.92;;;;;;;;;;4971107;28;20054;-61
2023/07/16 02:42:23;;;;;;;3.92;1.70;;;;;;;;;;4973770;28;20410;-63
2023/07/16 02:44:51;;;;;;;3.60;2.17;;;;;;;;;;4982600;28;20516;-63
2023/07/16 02:47:17;;;;;;;5.38;1.70;;;;;;;;;;4968682;28;20050;-63
2023/07/16 02:49:43;;;;;;;4.65;2.15;;;;;;;;;;4975786;28;20061;-62
2023/07/16 02:52:09;;;;;;;3.42;1.95;;;;;;;;;;4970944;28;20059;-63
2023/07/16 02:54:36;;;;;;;4.90;2.40;;;;;;;;;;4972623;28;20042;-61
2023/07/16 02:57:02;;;;;;;4.85;1.73;;;;;;;;;;4973673;28;20047;-61
2023/07/16 02:59:28;;;;;;;4.20;2.03;;;;;;;;;;4972974;28;20049;-63
2023/07/16 03:01:55;;;;;;;6.57;2.00;;;;;;;;;;4972216;28;20042;-62
2023/07/16 03:04:21;;;;;;;4.10;2.53;;;;;;;;;;4976177;28;20045;-63
2023/07/16 03:06:47;;;;;;;7.60;2.20;;;;;;;;;;4973721;28;20051;-63
2023/07/16 03:09:13;;;;;;;4.20;2.50;;;;;;;;;;4973150;28;20038;-62
2023/07/16 03:11:39;;;;;;;4.55;2.17;;;;;;;;;;4974200;28;20054;-63
2023/07/16 03:14:05;;;;;;;4.70;1.73;;;;;;;;;;4977035;28;20047;-63
2023/07/16 03:16:31;;;;;;;3.10;1.88;;;;;;;;;;4973811;28;20503;-62
2023/07/16 03:18:57;;;;;;;6.65;2.10;;;;;;;;;;4973541;28;20045;-63
2023/07/16 03:21:24;;;;;;;3.92;1.85;;;;;;;;;;4976196;28;20108;-63
2023/07/16 03:23:50;;;;;;;5.20;1.88;;;;;;;;;;4970826;28;20042;-62
2023/07/16 03:26:16;;;;;;;3.72;2.10;;;;;;;;;;4975173;28;20034;-62
2023/07/16 03:28:42;;;;;;;4.45;1.77;;;;;;;;;;4960166;28;20050;-62
2023/07/16 03:31:11;;;;;;;8.05;2.35;;;;;;;;;;4970421;28;20041;-63
2023/07/16 03:33:40;;;;;;;4.57;2.10;;;;;;;;;;4983264;28;20042;-63
2023/07/16 03:36:07;;;;;;;4.75;2.08;;;;;;;;;;4972128;28;20042;-62
2023/07/16 03:38:33;;;;;;;4.22;1.90;;;;;;;;;;4971793;28;20107;-62
2023/07/16 03:41:00;;;;;;;5.18;1.92;;;;;;;;;;4973338;28;20051;-61
2023/07/16 03:43:27;;;;;;;6.97;2.30;;;;;;;;;;4970741;28;20043;-61
2023/07/16 03:46:00;;;;;;;3.85;2.20;;;;;;;;;;4970145;28;20038;-61
2023/07/16 03:48:26;;;;;;;5.93;2.60;;;;;;;;;;4975213;28;20053;-61
2023/07/16 03:50:52;;;;;;;4.47;1.73;;;;;;;;;;4975309;28;20410;-61
2023/07/16 03:53:20;;;;;;;4.30;1.70;;;;;;;;;;4972133;28;20043;-62
2023/07/16 03:55:47;;;;;;;4.70;2.13;;;;;;;;;;4983731;28;20045;-62
2023/07/16 03:58:13;;;;;;;3.72;1.83;;;;;;;;;;4979269;28;20026;-62
2023/07/16 04:00:41;;;;;;;6.63;2.30;;;;;;;;;;4976286;28;20034;-63
2023/07/16 04:03:07;;;;;;;5.70;2.40;;;;;;;;;;4974031;28;20049;-61
2023/07/16 04:05:33;;;;;;;3.58;2.00;;;;;;;;;;4979179;28;20058;-62
2023/07/16 04:07:59;;;;;;;4.95;2.05;;;;;;;;;;4974207;28;20062;-61
2023/07/16 04:10:25;;;;;;;4.55;2.10;;;;;;;;;;4978915;28;20682;-62
2023/07/16 04:12:51;;;;;;;4.85;2.00;;;;;;;;;;4983391;28;20051;-62
2023/07/16 04:15:17;;;;;;;6.45;2.38;;;;;;;;;;4978424;28;20058;-62
2023/07/16 04:17:43;;;;;;;4.03;1.83;;;;;;;;;;4976305;28;20043;-62
2023/07/16 04:20:10;;;;;;;5.68;2.20;;;;;;;;;;4975371;28;20077;-62
2023/07/16 04:22:36;;;;;;;5.95;2.10;;;;;;;;;;4975874;28;20031;-62
2023/07/16 04:25:03;;;;;;;4.68;2.20;;;;;;;;;;4974687;28;20038;-62
2023/07/16 04:27:29;;;;;;;5.28;2.28;;;;;;;;;;4974958;28;20433;-61
2023/07/16 04:29:56;;;;;;;4.30;1.83;;;;;;;;;;4976124;28;20039;-61
2023/07/16 04:32:22;;;;;;;4.55;2.00;;;;;;;;;;4972418;28;20050;-62
2023/07/16 04:34:48;;;;;;;4.72;2.38;;;;;;;;;;4974696;28;20079;-61
2023/07/16 04:37:14;;;;;;;2.92;1.70;;;;;;;;;;4976634;28;20054;-62
2023/07/16 04:39:40;;;;;;;6.13;3.03;;;;;;;;;;4974852;28;20035;-63
2023/07/16 04:42:06;;;;;;;5.03;2.20;;;;;;;;;;4975911;28;20034;-63
2023/07/16 04:44:32;;;;;;;2.95;2.03;;;;;;;;;;4973782;28;20502;-62
2023/07/16 04:46:58;;;;;;;7.03;2.45;;;;;;;;;;4976777;28;20038;-63
2023/07/16 04:49:24;;;;;;;3.78;2.20;;;;;;;;;;4976089;28;20046;-62
2023/07/16 04:51:50;;;;;;;4.97;1.92;;;;;;;;;;4976527;28;20069;-62
2023/07/16 04:54:16;;;;;;;5.95;2.65;;;;;;;;;;4978979;28;20613;-62
2023/07/16 04:56:43;;;;;;;3.92;2.20;;;;;;;;;;4978677;28;20038;-61
2023/07/16 04:59:09;;;;;;;4.00;1.98;;;;;;;;;;4975662;28;20050;-62
2023/07/16 05:01:35;;;;;;;5.45;3.03;;;;;;;;;;4974205;28;20039;-63
2023/07/16 05:04:01;;;;;;;5.60;2.30;;;;;;;;;;4976860;28;20037;-62
2023/07/16 05:06:27;;;;;;;7.55;2.20;;;;;;;;;;4974466;28;20039;-63
2023/07/16 05:08:53;;;;;;;5.28;2.75;;;;;;;;;;4974074;28;20046;-59
2023/07/16 05:11:19;;;;;;;4.50;1.88;;;;;;;;;;4976782;28;20045;-61
2023/07/16 05:13:45;;;;;;;4.90;2.22;;;;;;;;;;4975006;28;20491;-62
2023/07/16 05:16:12;;;;;;;4.00;2.22;;;;;;;;;;4975690;28;20038;-63
2023/07/16 05:18:38;;;;;;;5.43;2.22;;;;;;;;;;4977431;28;20034;-64
2023/07/16 05:21:04;;;;;;;4.80;2.20;;;;;;;;;;4974165;28;20425;-61
2023/07/16 05:23:30;;;;;;;5.85;2.42;;;;;;;;;;4972075;28;20043;-63
2023/07/16 05:25:56;;;;;;;4.13;1.98;;;;;;;;;;4973585;28;20035;-61
2023/07/16 05:28:22;;;;;;;4.25;2.35;;;;;;;;;;4982488;28;20049;-61
2023/07/16 05:30:57;;;;;;;3.67;2.45;;;;;;;;;;4976956;28;20079;-61
2023/07/16 05:33:23;;;;;;;8.50;2.42;;;;;;;;;;4977136;28;20039;-61
2023/07/16 05:35:50;;;;;;;8.52;2.50;;;;;;;;;;4976159;28;20510;-60
2023/07/16 05:38:16;;;;;;;5.68;2.20;;;;;;;;;;4975981;28;20046;-61
2023/07/16 05:40:42;;;;;;;5.43;2.60;;;;;;;;;;4980637;28;20057;-60
2023/07/16 05:43:08;;;;;;;4.65;2.13;;;;;;;;;;4973927;28;20035;-61
2023/07/16 05:45:34;;;;;;;2.95;1.92;;;;;;;;;;4974706;28;20046;-61
2023/07/16 05:48:00;;;;;;;5.53;2.58;;;;;;;;;;4955854;28;20043;-61
2023/07/16 05:50:26;;;;;;;6.18;2.60;;;;;;;;;;4975990;28;20081;-60
2023/07/16 05:52:52;;;;;;;5.18;2.60;;;;;;;;;;4977188;28;20038;-60
2023/07/16 05:55:19;;;;;;;10.27;2.50;;;;;;;;;;4974491;28;20054;-61
2023/07/16 05:57:45;;;;;;;6.03;2.35;;;;;;;;;;4974861;28;20050;-60
2023/07/16 06:00:11;;;;;;;5.82;2.75;;;;;;;;;;4977614;28;20073;-58
2023/07/16 06:02:42;;;;;;;5.50;2.40;;;;;;;;;;4972714;28;20058;-60
2023/07/16 06:05:09;;;;;;;4.18;2.15;;;;;;;;;;4972502;28;20052;-61
2023/07/16 06:07:35;;;;;;;6.03;2.33;;;;;;;;;;4980505;28;20042;-59
2023/07/16 06:10:01;;;;;;;4.75;2.83;;;;;;;;;;4975784;28;20514;-58
2023/07/16 06:12:28;;;;;;;6.63;3.33;;;;;;;;;;4973511;28;20482;-59
2023/07/16 06:14:54;;;;;;;6.97;2.20;;;;;;;;;;4976801;28;20418;-59
2023/07/16 06:17:20;;;;;;;6.13;2.53;;;;;;;;;;4985344;28;20053;-58
2023/07/16 06:19:48;;;;;;;7.85;2.58;;;;;;;;;;4981934;28;20486;-58
2023/07/16 06:22:14;;;;;;;5.38;2.45;;;;;;;;;;4979220;28;20042;-61
2023/07/16 06:24:40;;;;;;;6.35;2.60;;;;;;;;;;4973788;28;20043;-61
2023/07/16 06:27:06;;;;;;;7.47;2.40;;;;;;;;;;4974256;28;20058;-61
2023/07/16 06:29:32;;;;;;;9.20;2.78;;;;;;;;;;4972395;28;20406;-61
2023/07/16 06:31:58;;;;;;;8.43;2.70;;;;;;;;;;4977476;28;20035;-60
2023/07/16 06:34:25;;;;;;;8.32;3.10;;;;;;;;;;4980695;28;20038;-60
2023/07/16 06:36:51;;;;;;;8.13;2.70;;;;;;;;;;4973556;28;20034;-60
2023/07/16 06:39:18;;;;;;;7.22;2.80;;;;;;;;;;4975197;28;20514;-60
2023/07/16 06:41:44;;;;;;;9.25;3.35;;;;;;;;;;4973543;28;20065;-61
2023/07/16 06:44:10;;;;;;;6.55;3.20;;;;;;;;;;4980999;28;20046;-60
2023/07/16 06:46:36;;;;;;;5.43;2.67;;;;;;;;;;4975399;28;20076;-61
2023/07/16 06:49:02;;;;;;;12.13;3.13;;;;;;;;;;4973315;28;20046;-61
2023/07/16 06:51:31;;;;;;;5.63;2.28;;;;;;;;;;4974031;28;20058;-60
2023/07/16 06:53:57;;;;;;;6.63;2.67;;;;;;;;;;4971971;28;20054;-60
2023/07/16 06:56:23;;;;;;;9.38;2.88;;;;;;;;;;4976521;28;20110;-61
2023/07/16 06:58:49;;;;;;;5.88;2.78;;;;;;;;;;4973836;28;20047;-60
2023/07/16 07:01:15;;;;;;;7.88;2.83;;;;;;;;;;4971049;28;20054;-60
2023/07/16 07:03:41;;;;;;;8.05;2.88;;;;;;;;;;4973587;28;20031;-60
2023/07/16 07:06:10;;;;;;;12.63;2.80;;;;;;;;;;4970338;28;20398;-59
2023/07/16 07:08:37;;;;;;;9.00;2.63;;;;;;;;;;4976193;28;20487;-59
2023/07/16 07:11:04;;;;;;;6.88;3.20;;;;;;;;;;4974286;28;20045;-59
2023/07/16 07:13:30;;;;;;;8.70;3.20;;;;;;;;;;4976171;28;20062;-59
2023/07/16 07:15:56;;;;;;;13.48;2.92;;;;;;;;;;4975296;28;20053;-59
2023/07/16 07:18:22;;;;;;;10.48;3.00;;;;;;;;;;4973464;28;20422;-59
2023/07/16 07:20:49;;;;;;;8.45;2.95;;;;;;;;;;4975064;28;20035;-59
2023/07/16 07:23:16;;;;;;;7.97;2.72;;;;;;;;;;4973688;28;20054;-60
2023/07/16 07:25:42;;;;;;;5.18;2.50;;;;;;;;;;4974885;28;20525;-59
2023/07/16 07:28:08;;;;;;;8.90;2.58;;;;;;;;;;4971313;28;20048;-59
2023/07/16 07:30:34;;;;;;;8.73;2.80;;;;;;;;;;4972290;28;20046;-61
2023/07/16 07:33:00;;;;;;;10.55;4.10;;;;;;;;;;4971683;28;20437;-59
2023/07/16 07:35:26;;;;;;;7.00;3.10;;;;;;;;;;4978846;28;20054;-59
2023/07/16 07:37:52;;;;;;;6.93;2.80;;;;;;;;;;4976601;28;20058;-60
2023/07/16 07:40:19;;;;;;;5.97;2.92;;;;;;;;;;4981098;28;20052;-58
2023/07/16 07:42:45;;;;;;;6.80;2.95;;;;;;;;;;4980984;28;20030;-59
2023/07/16 07:45:11;;;;;;;12.60;4.93;;;;;;;;;;4975470;28;20027;-58
2023/07/16 07:47:37;;;;;;;10.68;3.80;;;;;;;;;;4972875;28;20039;-59
2023/07/16 07:50:04;;;;;;;8.63;3.05;;;;;;;;;;4982107;28;20046;-58
2023/07/16 07:52:30;;;;;;;6.88;3.03;;;;;;;;;;4977067;28;20034;-59
2023/07/16 07:54:56;;;;;;;7.57;3.10;;;;;;;;;;4975382;28;20493;-59
2023/07/16 07:57:22;;;;;;;8.25;3.30;;;;;;;;;;4981372;28;20079;-59
2023/07/16 07:59:51;;;;;;;11.85;3.40;;;;;;;;;;4977759;28;20717;-58
2023/07/16 08:02:18;;;;;;;8.15;3.50;;;;;;;;;;4977949;28;20035;-60
2023/07/16 08:04:45;;;;;;;8.45;3.00;;;;;;;;;;4978955;28;20034;-60
2023/07/16 08:07:23;;;;;;;7.70;3.20;;;;;;;;;;4977473;28;20039;-60
2023/07/16 08:09:49;;;;;;;9.00;3.58;;;;;;;;;;4976787;28;20041;-59
2023/07/16 08:12:15;;;;;;;9.35;3.30;;;;;;;;;;4975470;28;20039;-60
2023/07/16 08:14:41;;;;;;;14.55;3.47;;;;;;;;;;4980297;28;20101;-60
2023/07/16 08:17:08;;;;;;;8.65;2.90;;;;;;;;;;4975964;28;20038;-59
2023/07/16 08:19:34;;;;;;;10.68;3.50;;;;;;;;;;4976570;28;20068;-62
2023/07/16 08:22:00;;;;;;;6.55;3.35;;;;;;;;;;4976972;28;20057;-60
2023/07/16 08:24:26;;;;;;;9.15;3.22;;;;;;;;;;4971549;28;20488;-60
2023/07/16 08:26:52;;;;;;;8.82;3.45;;;;;;;;;;4977987;28;20065;-60
2023/07/16 08:29:18;;;;;;;5.97;3.00;;;;;;;;;;4977022;28;20046;-60
2023/07/16 08:31:44;;;;;;;10.40;3.60;;;;;;;;;;4982379;28;20042;-60
2023/07/16 08:34:10;;;;;;;9.75;3.13;;;;;;;;;;4981858;28;20043;-60
2023/07/16 08:36:37;;;;;;;6.47;3.22;;;;;;;;;;4976613;28;20054;-60
2023/07/16 08:39:04;;;;;;;5.53;2.92;;;;;;;;;;4975041;28;20582;-59
2023/07/16 08:41:30;;;;;;;6.13;3.20;;;;;;;;;;4979979;28;20034;-60
2023/07/16 08:43:56;;;;;;;9.45;2.75;;;;;;;;;;4976929;28;20046;-59
2023/07/16 08:46:23;;;;;;;7.13;3.10;;;;;;;;;;4977440;28;20046;-60
2023/07/16 08:48:50;;;;;;;7.03;3.28;;;;;;;;;;4977249;28;20039;-59
2023/07/16 08:51:17;;;;;;;7.68;3.42;;;;;;;;;;4971266;28;20045;-59
2023/07/16 08:53:44;;;;;;;8.50;3.40;;;;;;;;;;4974235;28;20037;-59
2023/07/16 08:56:10;;;;;;;7.40;3.05;;;;;;;;;;4977702;28;20139;-60
2023/07/16 08:58:38;;;;;;;11.48;3.38;;;;;;;;;;4974891;28;20039;-60
2023/07/16 09:01:05;;;;;;;6.57;2.83;;;;;;;;;;4978708;28;20053;-59
2023/07/16 09:03:31;;;;;;;9.05;2.92;;;;;;;;;;4971666;28;20043;-60
2023/07/16 09:05:58;;;;;;;7.78;3.35;;;;;;;;;;4974845;28;20042;-64
2023/07/16 09:08:28;;;;;;;6.55;3.00;;;;;;;;;;4977932;28;20049;-60
2023/07/16 09:10:55;;;;;;;6.85;3.08;;;;;;;;;;4977301;28;20533;-60
2023/07/16 09:13:28;;;;;;;6.63;3.40;;;;;;;;;;4978022;28;20031;-60
2023/07/16 09:15:55;;;;;;;8.18;3.38;;;;;;;;;;4975025;28;20150;-60
2023/07/16 09:18:23;;;;;;;8.25;3.08;;;;;;;;;;4977178;28;20454;-60
2023/07/16 09:20:57;;;;;;;10.20;3.60;;;;;;;;;;4975738;28;20046;-62
2023/07/16 09:23:27;;;;;;;7.88;3.22;;;;;;;;;;4974166;28;20039;-59
2023/07/16 09:25:54;;;;;;;8.93;3.35;;;;;;;;;;4973435;28;20062;-60
2023/07/16 09:28:20;;;;;;;7.70;3.50;;;;;;;;;;4980811;28;20049;-60
2023/07/16 09:30:48;;;;;;;10.05;3.90;;;;;;;;;;4973720;28;20046;-60
2023/07/16 09:33:19;;;;;;;6.72;3.63;;;;;;;;;;4972718;28;20034;-60
2023/07/16 09:35:48;;;;;;;9.85;3.85;;;;;;;;;;4975810;28;20050;-58
2023/07/16 09:38:15;;;;;;;9.48;4.07;;;;;;;;;;4978150;28;20046;-59
2023/07/16 09:40:42;;;;;;;6.57;3.55;;;;;;;;;;4973019;28;20421;-62
2023/07/16 09:43:09;;;;;;;10.52;4.55;;;;;;;;;;4974198;28;20064;-59
2023/07/16 09:45:36;;;;;;;8.98;3.25;;;;;;;;;;4976327;28;20488;-59
2023/07/16 09:48:03;;;;;;;8.75;3.55;;;;;;;;;;4976263;28;20041;-60
2023/07/16 09:50:33;;;;;;;8.63;3.40;;;;;;;;;;4978568;28;20046;-59
2023/07/16 09:52:59;;;;;;;9.05;3.20;;;;;;;;;;4973125;28;20061;-59
2023/07/16 09:55:26;;;;;;;8.65;3.58;;;;;;;;;;4977155;28;20026;-60
2023/07/16 09:57:56;;;;;;;5.97;2.95;;;;;;;;;;4973479;28;20411;-59
2023/07/16 10:00:23;;;;;;;7.50;3.30;;;;;;;;;;4974578;28;20627;-59
2023/07/16 10:02:54;;;;;;;6.32;2.95;;;;;;;;;;4966628;28;20050;-59
2023/07/16 10:05:25;;;;;;;7.50;2.90;;;;;;;;;;4973363;28;20031;-61
2023/07/16 10:07:58;;;;;;;7.50;2.80;;;;;;;;;;4976653;28;20399;-61
2023/07/16 10:10:39;;;;;;;6.05;2.80;;;;;;;;;;4974871;28;20422;-61
2023/07/16 10:13:07;;;;;;;6.63;3.03;;;;;;;;;;4969551;28;20053;-61
2023/07/16 10:15:34;;;;;;;6.32;3.03;;;;;;;;;;4976600;28;20038;-60
2023/07/16 10:18:00;;;;;;;7.40;2.83;;;;;;;;;;4974342;28;20053;-60
2023/07/16 10:20:35;;;;;;;6.53;3.10;;;;;;;;;;4973024;28;20037;-60
2023/07/16 10:23:18;;;;;;;7.90;4.40;;;;;;;;;;4973196;28;20414;-59
2023/07/16 10:26:05;;;;;;;6.53;3.15;;;;;;;;;;4975499;28;20034;-61
2023/07/16 10:28:33;;;;;;;11.75;3.40;;;;;;;;;;4974225;28;20411;-59
2023/07/16 10:31:00;;;;;;;5.03;2.53;;;;;;;;;;4958348;28;20034;-60
2023/07/16 10:33:26;;;;;;;7.90;3.10;;;;;;;;;;4972493;28;20059;-60
2023/07/16 10:35:53;;;;;;;7.35;3.20;;;;;;;;;;4974640;28;20050;-61
2023/07/16 10:38:19;;;;;;;11.68;3.38;;;;;;;;;;4976307;28;20410;-61
2023/07/16 10:40:46;;;;;;;6.35;2.85;;;;;;;;;;4972223;28;20051;-61
2023/07/16 10:43:12;;;;;;;7.70;2.92;;;;;;;;;;4979581;28;20046;-61
2023/07/16 10:45:39;;;;;;;5.63;2.83;;;;;;;;;;4973998;28;20035;-61
2023/07/16 10:48:05;;;;;;;7.07;3.20;;;;;;;;;;4972792;28;20042;-61
2023/07/16 10:50:35;;;;;;;6.63;3.13;;;;;;;;;;4974261;28;20042;-61
2023/07/16 10:53:01;;;;;;;6.57;2.85;;;;;;;;;;4977133;28;20043;-61
2023/07/16 10:55:29;;;;;;;6.05;3.05;;;;;;;;;;4973476;28;20050;-61
2023/07/16 10:57:56;;;;;;;7.37;2.83;;;;;;;;;;4976176;28;20043;-63
2023/07/16 11:00:22;;;;;;;5.78;3.10;;;;;;;;;;4974554;28;20051;-62
2023/07/16 11:02:52;;;;;;;6.38;2.75;;;;;;;;;;4972148;28;20061;-62
2023/07/16 11:05:19;;;;;;;4.90;2.63;;;;;;;;;;4969403;28;20059;-61
2023/07/16 11:07:47;;;;;;;6.32;3.00;;;;;;;;;;4976149;28;20059;-61
2023/07/16 11:10:15;;;;;;;16.27;4.23;;;;;;;;;;4978634;28;20392;-61
2023/07/16 11:12:42;;;;;;;7.28;2.78;;;;;;;;;;4978420;28;20038;-62
2023/07/16 11:15:09;;;;;;;4.40;2.83;;;;;;;;;;4974848;28;20041;-62
2023/07/16 11:17:37;;;;;;;5.88;2.70;;;;;;;;;;4980170;28;20054;-62
2023/07/16 11:20:07;;;;;;;7.38;2.92;;;;;;;;;;4977957;28;20133;-65
2023/07/16 11:22:37;;;;;;;6.18;2.80;;;;;;;;;;4968908;28;20069;-62
2023/07/16 11:25:04;;;;;;;6.20;3.22;;;;;;;;;;4971727;28;20046;-61
2023/07/16 11:27:32;;;;;;;7.35;2.53;;;;;;;;;;4972555;28;20038;-62
2023/07/16 11:29:59;;;;;;;7.43;2.70;;;;;;;;;;4970316;28;20054;-62
2023/07/16 11:32:41;;;;;;;7.18;3.00;;;;;;;;;;4974007;28;20050;-60
2023/07/16 11:35:08;;;;;;;8.88;3.72;;;;;;;;;;4974803;28;20047;-60
2023/07/16 11:37:35;;;;;;;6.18;2.90;;;;;;;;;;4979226;28;20038;-60
2023/07/16 11:40:15;;;;;;;4.20;2.83;;;;;;;;;;4973198;28;20058;-60
2023/07/16 11:42:44;;;;;;;4.40;2.60;;;;;;;;;;4973445;28;20050;-60
2023/07/16 11:45:27;;;;;;;6.38;2.90;;;;;;;;;;4973035;28;20055;-60
2023/07/16 11:47:54;;;;;;;8.57;2.80;;;;;;;;;;4972422;28;20042;-61
2023/07/16 11:50:20;;;;;;;6.05;2.80;;;;;;;;;;4971169;28;20038;-61
2023/07/16 11:52:59;;;;;;;7.32;2.95;;;;;;;;;;4976029;28;20046;-61
2023/07/16 11:55:25;;;;;;;4.18;2.58;;;;;;;;;;4976308;28;20413;-61
2023/07/16 11:57:51;;;;;;;5.05;2.85;;;;;;;;;;4974432;28;20058;-61
2023/07/16 12:00:17;;;;;;;5.68;3.03;;;;;;;;;;4971153;28;20053;-61
2023/07/16 12:02:50;;;;;;;4.93;2.50;;;;;;;;;;4968855;28;20035;-62
2023/07/16 12:05:18;;;;;;;7.15;2.70;;;;;;;;;;4970135;28;20462;-61
2023/07/16 12:07:44;;;;;;;6.05;3.00;;;;;;;;;;4981485;28;20053;-61
2023/07/16 12:10:10;;;;;;;5.95;2.80;;;;;;;;;;4971292;28;20426;-60
2023/07/16 12:12:39;;;;;;;6.07;3.10;;;;;;;;;;4971639;28;20035;-64
2023/07/16 12:15:09;;;;;;;4.78;2.75;;;;;;;;;;4974112;28;20521;-61
2023/07/16 12:17:35;;;;;;;5.30;2.75;;;;;;;;;;4974228;28;20042;-61
2023/07/16 12:20:04;;;;;;;8.93;3.20;;;;;;;;;;4975465;28;20034;-62
2023/07/16 12:22:30;;;;;;;;;;;;;;;;;;4978687;28;20413;-61
2023/07/16 12:24:56;;;;;;;8.85;3.00;;;;;;;;;;4983345;28;19917;-61
2023/07/16 12:27:22;;;;;;;4.93;2.70;;;;;;;;;;4977489;28;20050;-61
2023/07/16 12:29:48;;;;;;;5.97;2.50;;;;;;;;;;4975986;28;20070;-61
2023/07/16 12:32:15;;;;;;;8.25;2.75;;;;;;;;;;4975761;28;20038;-61
2023/07/16 12:34:41;;;;;;;5.50;2.90;;;;;;;;;;4979679;28;20545;-61
2023/07/16 12:37:07;;;;;;;5.60;2.58;;;;;;;;;;4976570;28;20038;-61
2023/07/16 12:39:34;;;;;;;4.53;2.78;;;;;;;;;;4982564;28;20047;-61
2023/07/16 12:42:00;;;;;;;5.05;2.78;;;;;;;;;;4978888;28;20053;-61
2023/07/16 12:44:26;;;;;;;5.65;2.88;;;;;;;;;;4977326;28;20058;-62
2023/07/16 12:46:52;;;;;;;5.70;3.20;;;;;;;;;;4979469;28;20035;-60
2023/07/16 12:49:19;;;;;;;5.45;2.45;;;;;;;;;;4977603;28;20030;-62
2023/07/16 12:51:45;;;;;;;6.05;2.78;;;;;;;;;;4973790;28;20506;-61
2023/07/16 12:54:11;;;;;;;5.43;2.75;;;;;;;;;;4980218;28;20046;-61
2023/07/16 12:56:38;;;;;;;6.30;3.15;;;;;;;;;;4977321;28;20165;-61
2023/07/16 12:59:05;;;;;;;8.77;2.65;;;;;;;;;;4978510;28;20034;-63
2023/07/16 13:01:31;;;;;;;8.32;2.90;;;;;;;;;;4973385;28;20068;-60
2023/07/16 13:03:57;;;;;;;5.35;2.53;;;;;;;;;;4974367;28;20062;-61
2023/07/16 13:06:23;;;;;;;8.40;2.97;;;;;;;;;;4973384;28;20047;-61
2023/07/16 13:08:49;;;;;;;5.63;2.45;;;;;;;;;;4977769;28;20062;-61
2023/07/16 13:11:15;;;;;;;6.88;2.80;;;;;;;;;;4980623;28;20058;-61
2023/07/16 13:13:43;;;;;;;5.05;2.80;;;;;;;;;;4977577;28;20045;-60
2023/07/16 13:16:09;;;;;;;6.20;2.95;;;;;;;;;;4976239;28;20042;-60
2023/07/16 13:18:35;;;;;;;6.28;2.60;;;;;;;;;;4977156;28;20042;-61
2023/07/16 13:21:02;;;;;;;5.75;2.63;;;;;;;;;;4978059;28;20035;-61
2023/07/16 13:23:28;;;;;;;6.50;2.90;;;;;;;;;;4978251;28;20046;-61
2023/07/16 13:25:55;;;;;;;10.10;3.20;;;;;;;;;;4973325;28;20046;-61
2023/07/16 13:28:23;;;;;;;5.53;2.78;;;;;;;;;;4979581;28;20073;-62
2023/07/16 13:30:49;;;;;;;4.70;2.50;;;;;;;;;;4972566;28;20054;-62
2023/07/16 13:33:16;;;;;;;6.88;2.72;;;;;;;;;;4973735;28;20039;-62
2023/07/16 13:35:43;;;;;;;5.85;2.80;;;;;;;;;;4976425;28;20043;-61
2023/07/16 13:38:09;;;;;;;4.78;2.65;;;;;;;;;;4980587;28;20066;-63
2023/07/16 13:40:35;;;;;;;5.50;3.03;;;;;;;;;;4974381;28;20039;-61
2023/07/16 13:43:01;;;;;;;5.03;2.55;;;;;;;;;;4974779;28;20042;-61
2023/07/16 13:45:27;;;;;;;4.00;2.50;;;;;;;;;;4980865;28;20066;-63
2023/07/16 13:47:55;;;;;;;4.72;2.67;;;;;;;;;;4974353;28;20035;-61
2023/07/16 13:50:21;;;;;;;3.22;2.50;;;;;;;;;;4974509;28;20047;-61
2023/07/16 13:52:48;;;;;;;5.18;3.00;;;;;;;;;;4973192;28;20057;-63
2023/07/16 13:55:14;;;;;;;6.43;3.13;;;;;;;;;;4974967;28;20401;-61
2023/07/16 13:57:42;;;;;;;6.18;2.78;;;;;;;;;;4973614;28;20035;-62
2023/07/16 14:00:09;;;;;;;7.47;2.83;;;;;;;;;;4956336;28;20034;-62
2023/07/16 14:02:36;;;;;;;5.07;2.70;;;;;;;;;;4972864;28;20054;-61
2023/07/16 14:05:02;;;;;;;4.85;2.72;;;;;;;;;;4970885;28;20058;-64
2023/07/16 14:07:30;;;;;;;6.40;2.78;;;;;;;;;;4972869;28;20085;-61
2023/07/16 14:09:56;;;;;;;7.30;3.05;;;;;;;;;;4972691;28;20023;-60
2023/07/16 14:12:22;;;;;;;6.05;2.63;;;;;;;;;;4975239;28;20057;-61
2023/07/16 14:14:48;;;;;;;6.88;2.75;;;;;;;;;;4975893;28;20031;-59
2023/07/16 14:17:14;;;;;;;6.30;3.03;;;;;;;;;;4975134;28;20034;-60
2023/07/16 14:19:41;;;;;;;4.70;3.00;;;;;;;;;;4972746;28;20031;-62
2023/07/16 14:22:11;;;;;;;6.28;3.15;;;;;;;;;;4975662;28;20046;-63
2023/07/16 14:24:37;;;;;;;4.18;2.85;;;;;;;;;;4972833;28;20034;-63
2023/07/16 14:27:06;;;;;;;5.10;3.03;;;;;;;;;;4974843;28;20042;-63
2023/07/16 14:29:32;;;;;;;6.20;3.08;;;;;;;;;;4974049;28;20035;-63
2023/07/16 14:31:58;;;;;;;5.40;3.00;;;;;;;;;;4977766;28;20041;-62
2023/07/16 14:34:27;;;;;;;6.90;3.03;;;;;;;;;;4975372;28;20050;-62
2023/07/16 14:36:54;;;;;;;8.18;4.43;;;;;;;;;;4976537;28;20030;-63
2023/07/16 14:39:21;;;;;;;8.20;3.70;;;;;;;;;;4973384;28;20038;-63
2023/07/16 14:41:47;;;;;;;6.55;3.58;;;;;;;;;;4974961;28;20084;-62